sensor_id;sensor_type;location;lat;lon;timestamp;temperature;humidity
25250;DHT22;13201;51.148;13.738;2024-03-08T00:02:16;4.90;99.90
25250;DHT22;13201;51.148;13.738;2024-03-08T00:04:42;4.90;99.90
25250;DHT22;13201;51.148;13.738;2024-03-08T00:07:08;4.70;99.90
25250;DHT22;13201;51.148;13.738;2024-03-08T00:09:34;4.70;99.90
25250;DHT22;13201;51.148;13.738;2024-03-08T00:11:59;4.70;99.90
25250;DHT22;13201;51.148;13.738;2024-03-08T00:14:25;4.70;99.90
25250;DHT22;13201;51.148;13.738;2024-03-08T00:16:51;4.60;99.90
25250;DHT22;13201;51.148;13.738;2024-03-08T00:19:18;4.50;99.90
25250;DHT22;13201;51.148;13.738;2024-03-08T00:21:44;4.50;99.90
25250;DHT22;13201;51.148;13.738;2024-03-08T00:24:10;4.20;99.90
25250;DHT22;13201;51.148;13.738;2024-03-08T00:26:36;4.10;99.90
25250;DHT22;13201;51.148;13.738;2024-03-08T00:29:02;3.90;99.90
25250;DHT22;13201;51.148;13.738;2024-03-08T00:31:28;3.70;99.90
25250;DHT22;13201;51.148;13.738;2024-03-08T00:33:56;3.70;99.90
25250;DHT22;13201;51.148;13.738;2024-03-08T00:36:22;3.60;99.90
25250;DHT22;13201;51.148;13.738;2024-03-08T00:38:48;3.50;99.90
25250;DHT22;13201;51.148;13.738;2024-03-08T00:41:14;3.50;99.90
25250;DHT22;13201;51.148;13.738;2024-03-08T00:43:39;3.50;99.90
25250;DHT22;13201;51.148;13.738;2024-03-08T00:46:05;3.30;99.90
25250;DHT22;13201;51.148;13.738;2024-03-08T00:48:30;3.20;99.90
25250;DHT22;13201;51.148;13.738;2024-03-08T00:50:56;3.40;99.90
25250;DHT22;13201;51.148;13.738;2024-03-08T00:53:22;3.40;99.90
25250;DHT22;13201;51.148;13.738;2024-03-08T00:55:48;3.40;99.90
25250;DHT22;13201;51.148;13.738;2024-03-08T00:58:14;3.30;99.90
25250;DHT22;13201;51.148;13.738;2024-03-08T01:00:40;3.10;99.90
25250;DHT22;13201;51.148;13.738;2024-03-08T01:27:47;1.90;99.90
25250;DHT22;13201;51.148;13.738;2024-03-08T01:30:13;1.80;99.90
25250;DHT22;13201;51.148;13.738;2024-03-08T01:32:41;1.90;99.90
25250;DHT22;13201;51.148;13.738;2024-03-08T01:35:08;1.80;99.90
25250;DHT22;13201;51.148;13.738;2024-03-08T01:37:36;1.80;99.90
25250;DHT22;13201;51.148;13.738;2024-03-08T01:40:01;1.80;99.90
25250;DHT22;13201;51.148;13.738;2024-03-08T01:42:28;1.90;99.90
25250;DHT22;13201;51.148;13.738;2024-03-08T01:44:54;1.70;99.90
25250;DHT22;13201;51.148;13.738;2024-03-08T01:47:21;1.90;99.90
25250;DHT22;13201;51.148;13.738;2024-03-08T01:49:49;1.70;99.90
25250;DHT22;13201;51.148;13.738;2024-03-08T01:52:15;1.90;99.90
25250;DHT22;13201;51.148;13.738;2024-03-08T01:54:41;1.90;99.90
25250;DHT22;13201;51.148;13.738;2024-03-08T01:57:07;2.10;99.90
25250;DHT22;13201;51.148;13.738;2024-03-08T01:59:34;2.10;99.90
25250;DHT22;13201;51.148;13.738;2024-03-08T02:02:01;2.10;99.90
25250;DHT22;13201;51.148;13.738;2024-03-08T02:04:29;2.10;99.90
25250;DHT22;13201;51.148;13.738;2024-03-08T02:06:56;2.10;99.90
25250;DHT22;13201;51.148;13.738;2024-03-08T02:09:24;2.10;99.90
25250;DHT22;13201;51.148;13.738;2024-03-08T02:11:50;2.10;99.90
25250;DHT22;13201;51.148;13.738;2024-03-08T02:14:17;2.10;99.90
25250;DHT22;13201;51.148;13.738;2024-03-08T02:16:44;1.90;99.90
25250;DHT22;13201;51.148;13.738;2024-03-08T02:19:09;1.90;99.90
25250;DHT22;13201;51.148;13.738;2024-03-08T02:21:35;1.90;99.90
25250;DHT22;13201;51.148;13.738;2024-03-08T02:24:02;1.90;99.90
25250;DHT22;13201;51.148;13.738;2024-03-08T02:26:28;1.70;99.90
25250;DHT22;13201;51.148;13.738;2024-03-08T02:28:54;1.70;99.90
25250;DHT22;13201;51.148;13.738;2024-03-08T02:31:19;1.60;99.90
25250;DHT22;13201;51.148;13.738;2024-03-08T02:33:46;1.60;99.90
25250;DHT22;13201;51.148;13.738;2024-03-08T02:36:13;1.60;99.90
25250;DHT22;13201;51.148;13.738;2024-03-08T02:38:38;1.70;99.90
25250;DHT22;13201;51.148;13.738;2024-03-08T02:41:07;1.60;99.90
25250;DHT22;13201;51.148;13.738;2024-03-08T02:43:34;1.60;99.90
25250;DHT22;13201;51.148;13.738;2024-03-08T02:46:00;1.60;99.90
25250;DHT22;13201;51.148;13.738;2024-03-08T02:48:25;1.50;99.90
25250;DHT22;13201;51.148;13.738;2024-03-08T02:50:51;1.60;99.90
25250;DHT22;13201;51.148;13.738;2024-03-08T02:53:17;1.20;99.90
25250;DHT22;13201;51.148;13.738;2024-03-08T02:55:44;1.20;99.90
25250;DHT22;13201;51.148;13.738;2024-03-08T02:58:10;1.00;99.90
25250;DHT22;13201;51.148;13.738;2024-03-08T03:00:36;1.40;99.90
25250;DHT22;13201;51.148;13.738;2024-03-08T03:03:02;1.50;99.90
25250;DHT22;13201;51.148;13.738;2024-03-08T03:05:29;1.50;99.90
25250;DHT22;13201;51.148;13.738;2024-03-08T03:07:57;1.40;99.90
25250;DHT22;13201;51.148;13.738;2024-03-08T03:10:24;1.30;99.90
25250;DHT22;13201;51.148;13.738;2024-03-08T03:12:50;1.20;99.90
25250;DHT22;13201;51.148;13.738;2024-03-08T03:15:16;1.20;99.90
25250;DHT22;13201;51.148;13.738;2024-03-08T03:17:48;1.30;99.90
25250;DHT22;13201;51.148;13.738;2024-03-08T03:20:17;1.30;99.90
25250;DHT22;13201;51.148;13.738;2024-03-08T03:22:51;1.40;99.90
25250;DHT22;13201;51.148;13.738;2024-03-08T03:25:20;1.30;99.90
25250;DHT22;13201;51.148;13.738;2024-03-08T03:27:51;1.30;99.90
25250;DHT22;13201;51.148;13.738;2024-03-08T03:30:16;1.30;99.90
25250;DHT22;13201;51.148;13.738;2024-03-08T03:32:52;1.30;99.90
25250;DHT22;13201;51.148;13.738;2024-03-08T03:35:20;1.30;99.90
25250;DHT22;13201;51.148;13.738;2024-03-08T03:37:47;1.20;99.90
25250;DHT22;13201;51.148;13.738;2024-03-08T03:40:31;1.10;99.90
25250;DHT22;13201;51.148;13.738;2024-03-08T03:42:57;1.00;99.90
25250;DHT22;13201;51.148;13.738;2024-03-08T03:45:23;1.00;99.90
25250;DHT22;13201;51.148;13.738;2024-03-08T03:47:49;1.00;99.90
25250;DHT22;13201;51.148;13.738;2024-03-08T03:50:15;1.00;99.90
25250;DHT22;13201;51.148;13.738;2024-03-08T03:52:41;1.00;99.90
25250;DHT22;13201;51.148;13.738;2024-03-08T03:55:08;1.00;99.90
25250;DHT22;13201;51.148;13.738;2024-03-08T03:57:34;1.00;99.90
25250;DHT22;13201;51.148;13.738;2024-03-08T03:59:59;1.00;99.90
25250;DHT22;13201;51.148;13.738;2024-03-08T04:02:25;0.90;99.90
25250;DHT22;13201;51.148;13.738;2024-03-08T04:04:52;0.90;99.90
25250;DHT22;13201;51.148;13.738;2024-03-08T04:07:20;0.80;99.90
25250;DHT22;13201;51.148;13.738;2024-03-08T04:09:46;0.90;99.90
25250;DHT22;13201;51.148;13.738;2024-03-08T04:12:12;0.90;99.90
25250;DHT22;13201;51.148;13.738;2024-03-08T04:14:42;0.70;99.90
25250;DHT22;13201;51.148;13.738;2024-03-08T04:17:08;0.80;99.90
25250;DHT22;13201;51.148;13.738;2024-03-08T04:19:37;0.90;99.90
25250;DHT22;13201;51.148;13.738;2024-03-08T04:22:03;0.80;99.90
25250;DHT22;13201;51.148;13.738;2024-03-08T04:24:29;0.80;99.90
25250;DHT22;13201;51.148;13.738;2024-03-08T04:26:56;0.80;99.90
25250;DHT22;13201;51.148;13.738;2024-03-08T04:29:23;0.80;99.90
25250;DHT22;13201;51.148;13.738;2024-03-08T04:31:48;0.70;99.90
25250;DHT22;13201;51.148;13.738;2024-03-08T04:34:14;0.70;99.90
25250;DHT22;13201;51.148;13.738;2024-03-08T04:36:40;0.70;99.90
25250;DHT22;13201;51.148;13.738;2024-03-08T04:39:05;0.70;99.90
25250;DHT22;13201;51.148;13.738;2024-03-08T04:41:31;0.40;99.90
25250;DHT22;13201;51.148;13.738;2024-03-08T04:43:59;0.50;99.90
25250;DHT22;13201;51.148;13.738;2024-03-08T04:46:25;0.60;99.90
25250;DHT22;13201;51.148;13.738;2024-03-08T04:48:51;0.50;99.90
25250;DHT22;13201;51.148;13.738;2024-03-08T04:51:16;0.60;99.90
25250;DHT22;13201;51.148;13.738;2024-03-08T04:53:42;0.60;99.90
25250;DHT22;13201;51.148;13.738;2024-03-08T04:56:08;0.70;99.90
25250;DHT22;13201;51.148;13.738;2024-03-08T04:58:36;0.50;99.90
25250;DHT22;13201;51.148;13.738;2024-03-08T05:01:02;0.40;99.90
25250;DHT22;13201;51.148;13.738;2024-03-08T05:03:28;0.50;99.90
25250;DHT22;13201;51.148;13.738;2024-03-08T05:05:55;0.50;99.90
25250;DHT22;13201;51.148;13.738;2024-03-08T05:08:21;0.40;99.90
25250;DHT22;13201;51.148;13.738;2024-03-08T05:10:47;0.50;99.90
25250;DHT22;13201;51.148;13.738;2024-03-08T05:13:13;0.50;99.90
25250;DHT22;13201;51.148;13.738;2024-03-08T05:15:38;0.60;99.90
25250;DHT22;13201;51.148;13.738;2024-03-08T05:18:05;0.50;99.90
25250;DHT22;13201;51.148;13.738;2024-03-08T05:20:30;0.30;99.90
25250;DHT22;13201;51.148;13.738;2024-03-08T05:22:56;0.30;99.90
25250;DHT22;13201;51.148;13.738;2024-03-08T05:25:26;0.30;99.90
25250;DHT22;13201;51.148;13.738;2024-03-08T05:27:52;0.40;99.90
25250;DHT22;13201;51.148;13.738;2024-03-08T05:30:18;0.40;99.90
25250;DHT22;13201;51.148;13.738;2024-03-08T05:32:43;0.50;99.90
25250;DHT22;13201;51.148;13.738;2024-03-08T05:35:12;0.50;99.90
25250;DHT22;13201;51.148;13.738;2024-03-08T05:37:38;0.40;99.90
25250;DHT22;13201;51.148;13.738;2024-03-08T05:40:05;0.30;99.90
25250;DHT22;13201;51.148;13.738;2024-03-08T05:42:35;0.20;99.90
25250;DHT22;13201;51.148;13.738;2024-03-08T05:45:04;0.30;99.90
25250;DHT22;13201;51.148;13.738;2024-03-08T05:47:32;0.40;99.90
25250;DHT22;13201;51.148;13.738;2024-03-08T05:49:58;0.40;99.90
25250;DHT22;13201;51.148;13.738;2024-03-08T05:52:24;0.30;99.90
25250;DHT22;13201;51.148;13.738;2024-03-08T05:54:51;0.20;99.90
25250;DHT22;13201;51.148;13.738;2024-03-08T05:57:17;0.30;99.90
25250;DHT22;13201;51.148;13.738;2024-03-08T05:59:43;0.40;99.90
25250;DHT22;13201;51.148;13.738;2024-03-08T06:02:08;0.40;99.90
25250;DHT22;13201;51.148;13.738;2024-03-08T06:04:34;0.40;99.90
25250;DHT22;13201;51.148;13.738;2024-03-08T06:07:00;0.40;99.90
25250;DHT22;13201;51.148;13.738;2024-03-08T06:09:25;0.40;99.90
25250;DHT22;13201;51.148;13.738;2024-03-08T06:11:54;0.30;99.90
25250;DHT22;13201;51.148;13.738;2024-03-08T06:14:20;0.30;99.90
25250;DHT22;13201;51.148;13.738;2024-03-08T06:16:46;0.30;99.90
25250;DHT22;13201;51.148;13.738;2024-03-08T06:19:12;0.30;99.90
25250;DHT22;13201;51.148;13.738;2024-03-08T06:21:39;0.30;99.90
25250;DHT22;13201;51.148;13.738;2024-03-08T06:24:05;0.50;99.90
25250;DHT22;13201;51.148;13.738;2024-03-08T06:26:30;0.50;99.90
25250;DHT22;13201;51.148;13.738;2024-03-08T06:28:57;0.60;99.90
25250;DHT22;13201;51.148;13.738;2024-03-08T06:31:23;0.70;99.90
25250;DHT22;13201;51.148;13.738;2024-03-08T06:33:49;0.70;99.90
25250;DHT22;13201;51.148;13.738;2024-03-08T06:36:16;0.70;99.90
25250;DHT22;13201;51.148;13.738;2024-03-08T06:38:48;0.70;99.90
25250;DHT22;13201;51.148;13.738;2024-03-08T06:41:14;0.70;99.90
25250;DHT22;13201;51.148;13.738;2024-03-08T06:43:45;0.80;99.90
25250;DHT22;13201;51.148;13.738;2024-03-08T06:46:11;0.80;99.90
25250;DHT22;13201;51.148;13.738;2024-03-08T06:48:39;0.90;99.90
25250;DHT22;13201;51.148;13.738;2024-03-08T06:51:05;0.70;99.90
25250;DHT22;13201;51.148;13.738;2024-03-08T06:53:31;0.90;99.90
25250;DHT22;13201;51.148;13.738;2024-03-08T06:55:58;1.00;99.90
25250;DHT22;13201;51.148;13.738;2024-03-08T06:58:24;1.10;99.90
25250;DHT22;13201;51.148;13.738;2024-03-08T07:00:50;1.10;99.90
25250;DHT22;13201;51.148;13.738;2024-03-08T07:03:19;1.20;99.90
25250;DHT22;13201;51.148;13.738;2024-03-08T07:05:45;1.30;99.90
25250;DHT22;13201;51.148;13.738;2024-03-08T07:08:10;1.40;99.90
25250;DHT22;13201;51.148;13.738;2024-03-08T07:10:39;1.50;99.90
25250;DHT22;13201;51.148;13.738;2024-03-08T07:13:07;1.40;99.90
25250;DHT22;13201;51.148;13.738;2024-03-08T07:15:33;1.50;99.90
25250;DHT22;13201;51.148;13.738;2024-03-08T07:17:59;1.60;99.90
25250;DHT22;13201;51.148;13.738;2024-03-08T07:20:25;1.80;99.90
25250;DHT22;13201;51.148;13.738;2024-03-08T07:22:51;1.80;99.90
25250;DHT22;13201;51.148;13.738;2024-03-08T07:25:17;1.90;99.90
25250;DHT22;13201;51.148;13.738;2024-03-08T07:27:55;2.00;99.90
25250;DHT22;13201;51.148;13.738;2024-03-08T07:30:22;2.10;99.90
25250;DHT22;13201;51.148;13.738;2024-03-08T07:33:07;2.20;99.90
25250;DHT22;13201;51.148;13.738;2024-03-08T07:35:33;2.40;99.90
25250;DHT22;13201;51.148;13.738;2024-03-08T07:38:06;2.40;99.90
25250;DHT22;13201;51.148;13.738;2024-03-08T07:40:37;2.50;99.90
25250;DHT22;13201;51.148;13.738;2024-03-08T07:43:22;2.60;99.90
25250;DHT22;13201;51.148;13.738;2024-03-08T07:45:48;2.60;99.90
25250;DHT22;13201;51.148;13.738;2024-03-08T07:48:14;2.60;99.90
25250;DHT22;13201;51.148;13.738;2024-03-08T07:50:40;2.80;99.90
25250;DHT22;13201;51.148;13.738;2024-03-08T07:53:09;2.80;99.90
25250;DHT22;13201;51.148;13.738;2024-03-08T07:55:35;3.00;99.90
25250;DHT22;13201;51.148;13.738;2024-03-08T07:58:04;3.10;99.90
25250;DHT22;13201;51.148;13.738;2024-03-08T08:00:30;3.20;99.90
25250;DHT22;13201;51.148;13.738;2024-03-08T08:02:57;3.30;99.90
25250;DHT22;13201;51.148;13.738;2024-03-08T08:05:22;3.40;99.90
25250;DHT22;13201;51.148;13.738;2024-03-08T08:07:48;3.50;99.90
25250;DHT22;13201;51.148;13.738;2024-03-08T08:10:15;3.60;99.90
25250;DHT22;13201;51.148;13.738;2024-03-08T08:12:50;3.70;99.90
25250;DHT22;13201;51.148;13.738;2024-03-08T08:15:19;3.80;99.90
25250;DHT22;13201;51.148;13.738;2024-03-08T08:17:45;3.90;99.90
25250;DHT22;13201;51.148;13.738;2024-03-08T08:20:12;4.00;99.90
25250;DHT22;13201;51.148;13.738;2024-03-08T08:22:38;4.20;99.90
25250;DHT22;13201;51.148;13.738;2024-03-08T08:25:05;4.30;99.90
25250;DHT22;13201;51.148;13.738;2024-03-08T08:27:31;4.40;99.90
25250;DHT22;13201;51.148;13.738;2024-03-08T08:29:56;4.50;99.90
25250;DHT22;13201;51.148;13.738;2024-03-08T08:32:22;4.60;99.90
25250;DHT22;13201;51.148;13.738;2024-03-08T08:34:48;4.70;99.90
25250;DHT22;13201;51.148;13.738;2024-03-08T08:37:14;4.90;99.90
25250;DHT22;13201;51.148;13.738;2024-03-08T08:39:39;4.90;99.90
25250;DHT22;13201;51.148;13.738;2024-03-08T08:42:05;5.00;99.90
25250;DHT22;13201;51.148;13.738;2024-03-08T08:44:32;5.10;99.90
25250;DHT22;13201;51.148;13.738;2024-03-08T08:46:58;5.20;99.90
25250;DHT22;13201;51.148;13.738;2024-03-08T08:49:24;5.30;99.90
25250;DHT22;13201;51.148;13.738;2024-03-08T08:51:50;5.50;99.90
25250;DHT22;13201;51.148;13.738;2024-03-08T08:54:16;5.60;99.90
25250;DHT22;13201;51.148;13.738;2024-03-08T08:56:42;5.70;99.90
25250;DHT22;13201;51.148;13.738;2024-03-08T08:59:13;5.70;99.90
25250;DHT22;13201;51.148;13.738;2024-03-08T09:01:45;5.70;99.90
25250;DHT22;13201;51.148;13.738;2024-03-08T09:04:12;5.70;99.90
25250;DHT22;13201;51.148;13.738;2024-03-08T09:06:38;5.80;99.90
25250;DHT22;13201;51.148;13.738;2024-03-08T09:09:06;5.80;99.90
25250;DHT22;13201;51.148;13.738;2024-03-08T09:11:34;5.90;99.90
25250;DHT22;13201;51.148;13.738;2024-03-08T09:14:00;6.00;99.90
25250;DHT22;13201;51.148;13.738;2024-03-08T09:16:27;6.10;99.90
25250;DHT22;13201;51.148;13.738;2024-03-08T09:18:53;6.20;99.90
25250;DHT22;13201;51.148;13.738;2024-03-08T09:21:18;6.40;99.90
25250;DHT22;13201;51.148;13.738;2024-03-08T09:23:44;6.40;99.90
25250;DHT22;13201;51.148;13.738;2024-03-08T09:26:10;6.40;99.90
25250;DHT22;13201;51.148;13.738;2024-03-08T09:28:38;6.60;99.90
25250;DHT22;13201;51.148;13.738;2024-03-08T09:31:04;6.60;99.90
25250;DHT22;13201;51.148;13.738;2024-03-08T09:33:31;6.80;99.90
25250;DHT22;13201;51.148;13.738;2024-03-08T09:35:56;6.80;99.90
25250;DHT22;13201;51.148;13.738;2024-03-08T09:38:25;7.00;99.90
25250;DHT22;13201;51.148;13.738;2024-03-08T09:40:51;7.00;99.90
25250;DHT22;13201;51.148;13.738;2024-03-08T09:43:18;7.00;99.90
25250;DHT22;13201;51.148;13.738;2024-03-08T09:45:45;7.00;99.90
25250;DHT22;13201;51.148;13.738;2024-03-08T09:48:16;7.10;99.90
25250;DHT22;13201;51.148;13.738;2024-03-08T09:50:44;7.30;99.90
25250;DHT22;13201;51.148;13.738;2024-03-08T09:53:12;7.30;99.90
25250;DHT22;13201;51.148;13.738;2024-03-08T09:55:38;7.40;99.90
25250;DHT22;13201;51.148;13.738;2024-03-08T09:58:08;7.50;99.90
25250;DHT22;13201;51.148;13.738;2024-03-08T10:00:56;7.60;99.90
25250;DHT22;13201;51.148;13.738;2024-03-08T10:03:23;7.80;99.90
25250;DHT22;13201;51.148;13.738;2024-03-08T10:05:51;7.70;99.90
25250;DHT22;13201;51.148;13.738;2024-03-08T10:08:17;7.80;99.90
25250;DHT22;13201;51.148;13.738;2024-03-08T10:10:43;7.80;99.90
25250;DHT22;13201;51.148;13.738;2024-03-08T10:13:09;7.80;99.90
25250;DHT22;13201;51.148;13.738;2024-03-08T10:15:36;8.10;99.90
25250;DHT22;13201;51.148;13.738;2024-03-08T10:18:04;8.10;99.90
25250;DHT22;13201;51.148;13.738;2024-03-08T10:20:33;8.10;99.90
25250;DHT22;13201;51.148;13.738;2024-03-08T10:23:00;8.20;99.90
25250;DHT22;13201;51.148;13.738;2024-03-08T10:25:26;8.30;99.90
25250;DHT22;13201;51.148;13.738;2024-03-08T10:27:51;8.30;99.90
25250;DHT22;13201;51.148;13.738;2024-03-08T10:30:17;8.50;99.90
25250;DHT22;13201;51.148;13.738;2024-03-08T10:32:45;8.40;99.90
25250;DHT22;13201;51.148;13.738;2024-03-08T10:35:12;8.50;99.90
25250;DHT22;13201;51.148;13.738;2024-03-08T10:37:51;8.70;99.90
25250;DHT22;13201;51.148;13.738;2024-03-08T10:40:28;8.90;99.90
25250;DHT22;13201;51.148;13.738;2024-03-08T10:42:58;9.00;99.90
25250;DHT22;13201;51.148;13.738;2024-03-08T10:45:31;9.20;99.90
25250;DHT22;13201;51.148;13.738;2024-03-08T10:51:02;9.50;99.90
25250;DHT22;13201;51.148;13.738;2024-03-08T10:53:29;9.30;99.90
25250;DHT22;13201;51.148;13.738;2024-03-08T10:55:57;9.50;99.90
25250;DHT22;13201;51.148;13.738;2024-03-08T10:58:27;9.60;99.90
25250;DHT22;13201;51.148;13.738;2024-03-08T11:00:56;9.60;99.90
25250;DHT22;13201;51.148;13.738;2024-03-08T11:03:49;9.60;99.90
25250;DHT22;13201;51.148;13.738;2024-03-08T11:11:48;9.90;99.90
25250;DHT22;13201;51.148;13.738;2024-03-08T11:14:45;9.90;99.90
25250;DHT22;13201;51.148;13.738;2024-03-08T11:17:13;10.20;99.90
25250;DHT22;13201;51.148;13.738;2024-03-08T11:19:46;10.40;99.90
25250;DHT22;13201;51.148;13.738;2024-03-08T11:22:21;10.60;99.90
25250;DHT22;13201;51.148;13.738;2024-03-08T11:24:49;10.50;99.90
25250;DHT22;13201;51.148;13.738;2024-03-08T11:27:15;10.60;99.90
25250;DHT22;13201;51.148;13.738;2024-03-08T11:29:41;10.90;99.90
25250;DHT22;13201;51.148;13.738;2024-03-08T11:32:11;10.80;99.90
25250;DHT22;13201;51.148;13.738;2024-03-08T11:34:48;10.80;99.90
25250;DHT22;13201;51.148;13.738;2024-03-08T11:37:17;11.00;99.90
25250;DHT22;13201;51.148;13.738;2024-03-08T11:39:53;10.90;99.90
25250;DHT22;13201;51.148;13.738;2024-03-08T11:42:24;11.00;99.90
25250;DHT22;13201;51.148;13.738;2024-03-08T11:44:52;11.30;99.90
25250;DHT22;13201;51.148;13.738;2024-03-08T11:47:18;11.30;99.90
25250;DHT22;13201;51.148;13.738;2024-03-08T11:49:44;11.20;99.90
25250;DHT22;13201;51.148;13.738;2024-03-08T11:52:14;11.30;99.90
25250;DHT22;13201;51.148;13.738;2024-03-08T11:54:41;11.40;99.90
25250;DHT22;13201;51.148;13.738;2024-03-08T11:57:06;11.40;99.90
25250;DHT22;13201;51.148;13.738;2024-03-08T11:59:32;11.50;99.90
25250;DHT22;13201;51.148;13.738;2024-03-08T12:02:03;11.70;99.90
25250;DHT22;13201;51.148;13.738;2024-03-08T12:04:30;11.70;99.90
25250;DHT22;13201;51.148;13.738;2024-03-08T12:06:58;11.90;99.90
25250;DHT22;13201;51.148;13.738;2024-03-08T12:09:26;11.90;99.90
25250;DHT22;13201;51.148;13.738;2024-03-08T12:11:52;11.70;99.90
25250;DHT22;13201;51.148;13.738;2024-03-08T12:14:18;12.00;99.90
25250;DHT22;13201;51.148;13.738;2024-03-08T12:16:44;12.10;99.90
25250;DHT22;13201;51.148;13.738;2024-03-08T12:19:10;11.80;99.90
25250;DHT22;13201;51.148;13.738;2024-03-08T12:21:36;11.80;99.90
25250;DHT22;13201;51.148;13.738;2024-03-08T12:24:06;11.90;99.90
25250;DHT22;13201;51.148;13.738;2024-03-08T12:26:35;11.90;99.90
25250;DHT22;13201;51.148;13.738;2024-03-08T12:29:34;11.80;99.90
25250;DHT22;13201;51.148;13.738;2024-03-08T12:32:04;12.30;99.90
25250;DHT22;13201;51.148;13.738;2024-03-08T12:34:30;12.20;99.90
25250;DHT22;13201;51.148;13.738;2024-03-08T12:36:58;12.50;99.90
25250;DHT22;13201;51.148;13.738;2024-03-08T12:39:24;12.30;99.90
25250;DHT22;13201;51.148;13.738;2024-03-08T12:41:56;12.40;99.90
25250;DHT22;13201;51.148;13.738;2024-03-08T12:44:25;12.30;99.90
25250;DHT22;13201;51.148;13.738;2024-03-08T12:46:51;12.40;99.90
25250;DHT22;13201;51.148;13.738;2024-03-08T12:49:19;12.60;99.90
25250;DHT22;13201;51.148;13.738;2024-03-08T12:51:47;12.70;99.90
25250;DHT22;13201;51.148;13.738;2024-03-08T12:54:13;12.80;99.90
25250;DHT22;13201;51.148;13.738;2024-03-08T12:56:39;12.50;99.90
25250;DHT22;13201;51.148;13.738;2024-03-08T12:59:06;12.70;99.90
25250;DHT22;13201;51.148;13.738;2024-03-08T13:01:33;12.90;99.90
25250;DHT22;13201;51.148;13.738;2024-03-08T13:03:59;13.20;99.90
25250;DHT22;13201;51.148;13.738;2024-03-08T13:06:28;13.10;99.90
25250;DHT22;13201;51.148;13.738;2024-03-08T13:08:54;13.00;99.90
25250;DHT22;13201;51.148;13.738;2024-03-08T13:11:23;13.00;99.90
25250;DHT22;13201;51.148;13.738;2024-03-08T13:13:49;13.20;99.90
25250;DHT22;13201;51.148;13.738;2024-03-08T13:16:15;12.90;99.90
25250;DHT22;13201;51.148;13.738;2024-03-08T13:18:42;13.20;99.90
25250;DHT22;13201;51.148;13.738;2024-03-08T13:21:09;13.10;99.90
25250;DHT22;13201;51.148;13.738;2024-03-08T13:23:40;13.20;99.60
25250;DHT22;13201;51.148;13.738;2024-03-08T13:26:06;13.30;99.60
25250;DHT22;13201;51.148;13.738;2024-03-08T13:28:32;13.40;99.70
25250;DHT22;13201;51.148;13.738;2024-03-08T13:31:05;13.40;99.20
25250;DHT22;13201;51.148;13.738;2024-03-08T13:33:36;13.50;99.50
25250;DHT22;13201;51.148;13.738;2024-03-08T13:36:05;13.40;99.50
25250;DHT22;13201;51.148;13.738;2024-03-08T13:38:32;13.10;99.80
25250;DHT22;13201;51.148;13.738;2024-03-08T13:40:58;13.20;99.80
25250;DHT22;13201;51.148;13.738;2024-03-08T13:43:24;13.30;99.90
25250;DHT22;13201;51.148;13.738;2024-03-08T13:45:50;13.10;99.90
25250;DHT22;13201;51.148;13.738;2024-03-08T13:48:16;13.30;99.10
25250;DHT22;13201;51.148;13.738;2024-03-08T13:50:41;13.10;99.70
25250;DHT22;13201;51.148;13.738;2024-03-08T13:53:07;13.20;99.20
25250;DHT22;13201;51.148;13.738;2024-03-08T13:55:35;13.30;99.60
25250;DHT22;13201;51.148;13.738;2024-03-08T13:58:01;13.20;98.90
25250;DHT22;13201;51.148;13.738;2024-03-08T14:00:27;13.00;99.60
25250;DHT22;13201;51.148;13.738;2024-03-08T14:02:58;13.00;99.60
25250;DHT22;13201;51.148;13.738;2024-03-08T14:05:24;13.40;99.30
25250;DHT22;13201;51.148;13.738;2024-03-08T14:07:50;13.30;98.90
25250;DHT22;13201;51.148;13.738;2024-03-08T14:10:16;13.50;98.80
25250;DHT22;13201;51.148;13.738;2024-03-08T14:12:45;13.50;99.10
25250;DHT22;13201;51.148;13.738;2024-03-08T14:15:13;13.50;98.90
25250;DHT22;13201;51.148;13.738;2024-03-08T14:17:39;13.70;98.30
25250;DHT22;13201;51.148;13.738;2024-03-08T14:20:06;13.90;98.70
25250;DHT22;13201;51.148;13.738;2024-03-08T14:22:31;13.80;98.60
25250;DHT22;13201;51.148;13.738;2024-03-08T14:24:57;13.90;98.40
25250;DHT22;13201;51.148;13.738;2024-03-08T14:27:23;13.70;98.40
25250;DHT22;13201;51.148;13.738;2024-03-08T14:29:48;14.10;98.20
25250;DHT22;13201;51.148;13.738;2024-03-08T14:32:14;14.10;98.10
25250;DHT22;13201;51.148;13.738;2024-03-08T14:34:40;14.70;98.00
25250;DHT22;13201;51.148;13.738;2024-03-08T14:37:06;14.30;98.20
25250;DHT22;13201;51.148;13.738;2024-03-08T14:39:37;14.00;97.80
25250;DHT22;13201;51.148;13.738;2024-03-08T14:42:03;14.20;97.80
25250;DHT22;13201;51.148;13.738;2024-03-08T14:44:29;14.30;97.70
25250;DHT22;13201;51.148;13.738;2024-03-08T14:46:58;14.40;97.60
25250;DHT22;13201;51.148;13.738;2024-03-08T14:49:24;14.30;97.60
25250;DHT22;13201;51.148;13.738;2024-03-08T14:51:55;14.50;97.70
25250;DHT22;13201;51.148;13.738;2024-03-08T14:54:20;14.50;97.50
25250;DHT22;13201;51.148;13.738;2024-03-08T14:56:49;14.80;97.30
25250;DHT22;13201;51.148;13.738;2024-03-08T14:59:17;14.10;97.40
25250;DHT22;13201;51.148;13.738;2024-03-08T15:01:45;14.50;97.50
25250;DHT22;13201;51.148;13.738;2024-03-08T15:04:11;14.60;97.20
25250;DHT22;13201;51.148;13.738;2024-03-08T15:06:40;14.60;97.50
25250;DHT22;13201;51.148;13.738;2024-03-08T15:09:08;14.80;97.10
25250;DHT22;13201;51.148;13.738;2024-03-08T15:11:52;14.60;97.60
25250;DHT22;13201;51.148;13.738;2024-03-08T15:14:18;14.60;97.40
25250;DHT22;13201;51.148;13.738;2024-03-08T15:16:45;14.60;97.60
25250;DHT22;13201;51.148;13.738;2024-03-08T15:19:13;14.90;97.20
25250;DHT22;13201;51.148;13.738;2024-03-08T15:21:40;14.80;97.30
25250;DHT22;13201;51.148;13.738;2024-03-08T15:24:08;15.00;97.30
25250;DHT22;13201;51.148;13.738;2024-03-08T15:26:41;14.90;97.00
25250;DHT22;13201;51.148;13.738;2024-03-08T15:29:06;14.80;97.10
25250;DHT22;13201;51.148;13.738;2024-03-08T15:31:32;15.10;97.10
25250;DHT22;13201;51.148;13.738;2024-03-08T15:34:00;14.90;97.20
25250;DHT22;13201;51.148;13.738;2024-03-08T15:36:32;14.70;97.10
25250;DHT22;13201;51.148;13.738;2024-03-08T15:38:59;14.60;97.20
25250;DHT22;13201;51.148;13.738;2024-03-08T15:41:25;14.60;97.30
25250;DHT22;13201;51.148;13.738;2024-03-08T15:43:52;14.30;97.10
25250;DHT22;13201;51.148;13.738;2024-03-08T15:46:18;14.30;97.30
25250;DHT22;13201;51.148;13.738;2024-03-08T15:48:48;14.20;97.60
25250;DHT22;13201;51.148;13.738;2024-03-08T15:51:14;13.90;98.00
25250;DHT22;13201;51.148;13.738;2024-03-08T15:53:41;14.00;98.10
25250;DHT22;13201;51.148;13.738;2024-03-08T15:56:07;13.60;98.70
25250;DHT22;13201;51.148;13.738;2024-03-08T15:58:36;13.60;98.30
25250;DHT22;13201;51.148;13.738;2024-03-08T16:01:03;13.60;98.30